Time;durP1;ratioP1;P1;durP2;ratioP2;P2;SDS_P1;SDS_P2;PMS_P1;PMS_P2;Temp;Humidity;BMP_temperature;BMP_pressure;BME280_temperature;BME280_humidity;BME280_pressure;Samples;Min_cycle;Max_cycle;Signal;HPM_P1;HPM_P2
2022/12/12 00:01:54;;;;;;;34.50;16.45;;;-0.20;99.90;;;;;;5012391;28;20049;-73
2022/12/12 00:04:20;;;;;;;33.78;16.10;;;-0.20;99.90;;;;;;5010517;28;20122;-74
2022/12/12 00:06:45;;;;;;;34.75;16.52;;;-0.10;99.90;;;;;;5029719;28;20683;-74
2022/12/12 00:09:11;;;;;;;33.22;16.60;;;-0.10;99.90;;;;;;5030309;28;20045;-74
2022/12/12 00:11:37;;;;;;;31.35;15.90;;;-0.10;99.90;;;;;;5012309;28;20643;-73
2022/12/12 00:14:03;;;;;;;30.02;15.05;;;-0.10;99.90;;;;;;5027843;28;20100;-74
2022/12/12 00:16:29;;;;;;;33.53;16.45;;;-0.20;99.90;;;;;;5028580;28;20057;-74
2022/12/12 00:18:54;;;;;;;32.83;16.00;;;-0.20;99.90;;;;;;5012500;28;20144;-74
2022/12/12 00:21:23;;;;;;;33.25;17.20;;;-0.20;99.90;;;;;;5030458;28;20045;-73
2022/12/12 00:23:49;;;;;;;31.95;15.63;;;-0.20;99.90;;;;;;5028595;28;20132;-74
2022/12/12 00:26:34;;;;;;;32.35;16.48;;;-0.10;99.90;;;;;;5012415;28;20454;-73
2022/12/12 00:29:02;;;;;;;33.90;16.65;;;-0.20;99.90;;;;;;5029647;28;20057;-74
2022/12/12 00:31:28;;;;;;;36.60;15.88;;;-0.20;99.90;;;;;;5030175;28;20045;-74
2022/12/12 00:33:54;;;;;;;34.05;16.67;;;-0.20;99.90;;;;;;5010590;28;20072;-72
2022/12/12 00:36:23;;;;;;;31.15;16.70;;;-0.10;99.90;;;;;;5029789;28;20045;-73
2022/12/12 00:38:51;;;;;;;33.47;16.60;;;-0.10;99.90;;;;;;5012303;28;20115;-74
2022/12/12 00:41:17;;;;;;;32.25;16.38;;;-0.10;99.90;;;;;;5029993;28;20053;-74
2022/12/12 00:43:43;;;;;;;32.45;16.55;;;-0.10;99.90;;;;;;5030106;28;20123;-73
2022/12/12 00:46:16;;;;;;;32.38;15.98;;;-0.10;99.90;;;;;;5028034;28;20744;-73
2022/12/12 00:48:42;;;;;;;33.17;16.40;;;-0.10;99.90;;;;;;5011250;28;20040;-74
2022/12/12 00:51:10;;;;;;;34.80;16.20;;;-0.20;99.90;;;;;;5011786;28;20171;-74
2022/12/12 00:53:37;;;;;;;31.80;16.15;;;-0.20;99.90;;;;;;5029560;28;20049;-76
2022/12/12 00:56:03;;;;;;;31.30;15.93;;;-0.20;99.90;;;;;;5027613;28;20096;-74
2022/12/12 00:58:29;;;;;;;33.10;15.75;;;-0.10;99.90;;;;;;5029516;28;20123;-73
2022/12/12 01:00:55;;;;;;;29.60;15.65;;;-0.10;99.90;;;;;;5029603;28;20045;-74
2022/12/12 01:03:21;;;;;;;32.30;16.17;;;-0.10;99.90;;;;;;5029551;28;20060;-74
2022/12/12 01:05:47;;;;;;;31.90;15.82;;;-0.20;99.90;;;;;;5028095;28;20074;-73
2022/12/12 01:08:13;;;;;;;32.90;15.27;;;-0.10;99.90;;;;;;5029234;28;20490;-76
2022/12/12 01:10:39;;;;;;;36.35;16.77;;;-0.10;99.90;;;;;;5029431;28;20042;-74
2022/12/12 01:13:05;;;;;;;31.77;15.85;;;-0.10;99.90;;;;;;5011751;28;20049;-74
2022/12/12 01:15:31;;;;;;;34.63;15.80;;;-0.20;99.90;;;;;;5029498;28;20056;-73
2022/12/12 01:17:57;;;;;;;30.60;15.10;;;-0.20;99.90;;;;;;5027931;28;20128;-74
2022/12/12 01:20:25;;;;;;;31.00;16.10;;;-0.10;99.90;;;;;;5029514;28;20404;-77
2022/12/12 01:22:52;;;;;;;30.80;15.57;;;-0.20;99.90;;;;;;5011789;28;20045;-74
2022/12/12 01:25:17;;;;;;;31.20;15.68;;;-0.20;99.90;;;;;;5030121;28;20092;-74
2022/12/12 01:27:44;;;;;;;33.00;16.10;;;-0.20;99.90;;;;;;5032195;28;20053;-73
2022/12/12 01:30:13;;;;;;;30.50;14.60;;;-0.20;99.90;;;;;;5033165;28;20401;-74
2022/12/12 01:32:38;;;;;;;37.30;16.42;;;-0.20;99.90;;;;;;5033286;28;20049;-74
2022/12/12 01:35:07;;;;;;;33.33;15.10;;;-0.20;99.90;;;;;;5032922;28;20107;-73
2022/12/12 01:37:34;;;;;;;35.42;16.33;;;-0.20;99.90;;;;;;5031773;28;20077;-73
2022/12/12 01:40:00;;;;;;;30.95;15.65;;;-0.20;99.90;;;;;;4994088;28;20046;-73
2022/12/12 01:42:27;;;;;;;36.67;15.63;;;-0.20;99.90;;;;;;4993856;28;20466;-74
2022/12/12 01:44:53;;;;;;;32.63;15.77;;;-0.10;99.90;;;;;;4993872;28;20042;-77
2022/12/12 01:47:21;;;;;;;27.45;14.98;;;-0.20;99.90;;;;;;4976339;28;20054;-75
2022/12/12 01:50:06;;;;;;;32.15;14.38;;;-0.20;99.90;;;;;;5008870;28;20046;-74
2022/12/12 01:52:43;;;;;;;35.38;16.10;;;-0.20;99.90;;;;;;5013591;28;20042;-75
2022/12/12 01:55:16;;;;;;;33.00;14.50;;;-0.10;99.90;;;;;;4995449;28;20064;-73
2022/12/12 01:57:46;;;;;;;32.95;15.75;;;-0.20;99.90;;;;;;5013257;28;20053;-75
2022/12/12 02:00:13;;;;;;;32.85;15.65;;;-0.20;99.90;;;;;;4996339;28;20060;-74
2022/12/12 02:02:42;;;;;;;28.65;14.35;;;-0.20;99.90;;;;;;4995476;28;20813;-75
2022/12/12 02:05:27;;;;;;;32.22;15.93;;;-0.10;99.90;;;;;;5012670;28;20501;-73
2022/12/12 02:07:54;;;;;;;29.88;14.43;;;-0.20;99.90;;;;;;4995438;28;20050;-79
2022/12/12 02:10:20;;;;;;;31.83;14.45;;;-0.20;99.90;;;;;;5013989;28;20041;-75
2022/12/12 02:12:46;;;;;;;25.10;13.63;;;-0.20;99.90;;;;;;5012938;28;20049;-74
2022/12/12 02:15:12;;;;;;;28.48;14.20;;;-0.20;99.90;;;;;;4994857;28;20053;-74
2022/12/12 02:17:43;;;;;;;30.00;14.48;;;-0.20;99.90;;;;;;5012751;28;20049;-72
2022/12/12 02:20:27;;;;;;;29.60;15.10;;;-0.20;99.90;;;;;;4995750;28;20049;-72
2022/12/12 02:22:55;;;;;;;34.38;14.60;;;-0.20;99.90;;;;;;4975635;28;20050;-73
2022/12/12 02:25:39;;;;;;;27.42;14.00;;;-0.20;99.90;;;;;;4974032;28;20046;-71
2022/12/12 02:28:23;;;;;;;30.75;14.85;;;-0.20;99.90;;;;;;4993174;28;20054;-73
2022/12/12 02:30:57;;;;;;;30.60;14.68;;;-0.20;99.90;;;;;;4977999;28;20054;-73
2022/12/12 02:33:37;;;;;;;31.88;15.25;;;-0.20;99.90;;;;;;4994706;28;20057;-76
2022/12/12 02:36:23;;;;;;;28.60;14.45;;;-0.20;99.90;;;;;;4994386;28;20405;-72
2022/12/12 02:39:00;;;;;;;29.70;14.50;;;-0.20;99.90;;;;;;5012585;28;20052;-72
2022/12/12 02:41:37;;;;;;;35.60;15.35;;;-0.20;99.90;;;;;;5013221;28;20052;-73
2022/12/12 02:44:22;;;;;;;29.98;13.85;;;-0.20;99.90;;;;;;4992837;28;20077;-72
2022/12/12 02:46:55;;;;;;;29.15;14.82;;;-0.20;99.90;;;;;;4975453;28;20061;-73
2022/12/12 02:49:39;;;;;;;28.33;14.20;;;-0.20;99.90;;;;;;4992781;28;20053;-72
2022/12/12 02:52:07;;;;;;;29.13;13.88;;;-0.20;99.90;;;;;;4974967;28;20038;-73
2022/12/12 02:54:33;;;;;;;30.67;14.15;;;-0.20;99.90;;;;;;4992651;28;20177;-72
2022/12/12 02:57:00;;;;;;;30.23;14.55;;;-0.20;99.90;;;;;;4990932;28;20553;-73
2022/12/12 02:59:34;;;;;;;29.17;14.82;;;-0.20;99.90;;;;;;4992362;28;20097;-76
2022/12/12 03:02:12;;;;;;;27.63;13.60;;;-0.20;99.90;;;;;;5006616;28;20033;-72
2022/12/12 03:07:56;;;;;;;33.17;14.52;;;-0.20;99.90;;;;;;5025560;28;20054;-77
2022/12/12 03:10:47;;;;;;;26.60;14.50;;;-0.20;99.90;;;;;;5012654;28;20046;-77
2022/12/12 03:13:19;;;;;;;31.85;14.35;;;-0.20;99.90;;;;;;5011568;28;20168;-71
2022/12/12 03:16:01;;;;;;;29.35;14.48;;;-0.20;99.90;;;;;;5015605;28;20044;-73
2022/12/12 03:18:55;;;;;;;32.95;14.38;;;-0.20;99.90;;;;;;5013656;28;20057;-73
2022/12/12 03:21:30;;;;;;;28.95;13.55;;;-0.20;99.90;;;;;;5028521;28;20444;-71
2022/12/12 03:24:02;;;;;;;30.00;13.88;;;-0.20;99.90;;;;;;5023267;28;20077;-72
2022/12/12 03:26:38;;;;;;;29.92;14.43;;;-0.20;99.90;;;;;;5012833;28;20515;-71
2022/12/12 03:29:10;;;;;;;30.30;14.88;;;-0.20;99.90;;;;;;5015247;28;20058;-72
2022/12/12 03:31:41;;;;;;;38.72;15.55;;;-0.30;99.90;;;;;;4994278;28;20061;-71
2022/12/12 03:34:15;;;;;;;33.40;14.77;;;-0.20;99.90;;;;;;4990027;28;20090;-71
2022/12/12 03:36:53;;;;;;;29.92;14.48;;;-0.20;99.90;;;;;;4989893;28;20166;-71
2022/12/12 03:39:27;;;;;;;28.08;14.52;;;-0.20;99.90;;;;;;5010299;28;20052;-72
2022/12/12 03:42:14;;;;;;;27.35;13.73;;;-0.20;99.90;;;;;;5011147;28;20532;-71
2022/12/12 03:44:47;;;;;;;28.90;13.30;;;-0.20;99.90;;;;;;4973651;28;20510;-72
2022/12/12 03:47:20;;;;;;;27.95;13.63;;;-0.30;99.90;;;;;;4970901;28;20042;-71
2022/12/12 03:50:00;;;;;;;27.58;14.25;;;-0.30;99.90;;;;;;4996717;28;20521;-71
2022/12/12 03:52:38;;;;;;;29.38;14.13;;;-0.20;99.90;;;;;;5011651;28;20054;-72
2022/12/12 03:55:23;;;;;;;28.67;13.57;;;-0.20;99.90;;;;;;5009499;28;20058;-73
2022/12/12 03:57:59;;;;;;;30.70;14.88;;;-0.30;99.90;;;;;;4991095;28;20054;-72
2022/12/12 04:00:27;;;;;;;30.00;13.60;;;-0.20;99.90;;;;;;4975530;28;20124;-72
2022/12/12 04:03:01;;;;;;;28.58;14.10;;;-0.20;99.90;;;;;;5026132;28;20057;-72
2022/12/12 04:06:26;;;;;;;30.52;14.00;;;-0.30;99.90;;;;;;5011038;28;20405;-73
2022/12/12 04:15:02;;;;;;;27.98;14.10;;;-0.20;99.90;;;;;;5011701;28;20069;-72
2022/12/12 04:17:39;;;;;;;28.50;14.10;;;-0.20;99.90;;;;;;5010651;28;20092;-73
2022/12/12 04:23:28;;;;;;;27.05;13.00;;;-0.30;99.90;;;;;;5027961;28;20397;-72
2022/12/12 04:28:52;;;;;;;30.98;14.43;;;-0.30;99.90;;;;;;5029539;28;20052;-72
2022/12/12 04:31:21;;;;;;;27.98;14.13;;;-0.20;99.90;;;;;;5029686;28;20049;-72
2022/12/12 04:33:51;;;;;;;22.90;12.70;;;-0.30;99.90;;;;;;5010241;28;20578;-72
2022/12/12 04:36:19;;;;;;;26.45;13.60;;;-0.20;99.90;;;;;;5027959;28;20056;-72
2022/12/12 04:38:46;;;;;;;29.33;13.15;;;-0.30;99.90;;;;;;5029670;28;20037;-73
2022/12/12 04:41:13;;;;;;;26.20;13.13;;;-0.30;99.90;;;;;;5008250;28;20097;-73
2022/12/12 04:43:42;;;;;;;27.98;14.40;;;-0.20;99.90;;;;;;4992490;28;20045;-72
2022/12/12 04:46:12;;;;;;;26.33;13.23;;;-0.30;99.90;;;;;;5011313;28;20084;-72
2022/12/12 04:48:41;;;;;;;26.17;12.57;;;-0.20;99.90;;;;;;5010919;28;20073;-73
2022/12/12 04:51:09;;;;;;;27.70;12.98;;;-0.30;99.90;;;;;;5021233;28;20370;-72
2022/12/12 04:53:41;;;;;;;27.45;13.40;;;-0.30;99.90;;;;;;4992254;28;20049;-72
2022/12/12 04:56:10;;;;;;;26.42;13.45;;;-0.20;99.90;;;;;;4989005;28;20058;-72
2022/12/12 04:58:37;;;;;;;26.50;13.63;;;-0.30;99.90;;;;;;4989400;28;20402;-73
2022/12/12 05:01:15;;;;;;;26.30;13.35;;;-0.30;99.90;;;;;;5003413;28;20088;-73
2022/12/12 05:03:57;;;;;;;28.02;12.88;;;-0.30;99.90;;;;;;4999608;28;20140;-74
2022/12/12 05:06:38;;;;;;;26.63;13.45;;;-0.30;99.90;;;;;;4992213;28;20490;-72
2022/12/12 05:09:05;;;;;;;24.35;12.10;;;-0.30;99.90;;;;;;5010516;28;20042;-72
2022/12/12 05:11:33;;;;;;;24.98;12.55;;;-0.30;99.90;;;;;;5009905;28;20054;-73
2022/12/12 05:13:58;;;;;;;29.08;13.55;;;-0.30;99.90;;;;;;5010115;28;20135;-74
2022/12/12 05:16:31;;;;;;;29.30;13.90;;;-0.30;99.90;;;;;;5010098;28;20170;-72
2022/12/12 05:18:58;;;;;;;28.20;13.70;;;-0.30;99.90;;;;;;4992882;28;20128;-71
2022/12/12 05:21:24;;;;;;;27.17;12.73;;;-0.30;99.90;;;;;;5009916;28;20060;-74
2022/12/12 05:23:50;;;;;;;29.38;14.13;;;0.00;99.90;;;;;;5019201;28;20385;-72
2022/12/12 05:26:27;;;;;;;27.90;13.10;;;-0.30;99.90;;;;;;5012154;28;20045;-72
2022/12/12 05:28:53;;;;;;;25.00;13.38;;;-0.30;99.90;;;;;;5028196;28;20041;-72
2022/12/12 05:31:19;;;;;;;27.30;14.02;;;-0.30;99.90;;;;;;5011199;28;20139;-75
2022/12/12 05:33:45;;;;;;;26.50;12.82;;;-0.30;99.90;;;;;;5011467;28;20056;-73
2022/12/12 05:36:11;;;;;;;28.27;13.70;;;-0.30;99.90;;;;;;5029014;28;20034;-72
2022/12/12 05:38:37;;;;;;;31.38;14.30;;;-0.30;99.90;;;;;;5027579;28;20492;-72
2022/12/12 05:41:04;;;;;;;28.80;13.73;;;-0.30;99.90;;;;;;5028868;28;20034;-72
2022/12/12 05:43:30;;;;;;;25.85;13.02;;;-0.30;99.90;;;;;;5011323;28;20049;-72
2022/12/12 05:45:56;;;;;;;28.30;13.18;;;-0.30;99.90;;;;;;5029302;28;20063;-72
2022/12/12 05:48:22;;;;;;;24.45;13.02;;;-0.30;99.90;;;;;;5029178;28;20052;-72
2022/12/12 05:50:48;;;;;;;25.70;13.25;;;-0.30;99.90;;;;;;5027443;28;20048;-72
2022/12/12 05:53:14;;;;;;;24.75;12.75;;;-0.30;99.90;;;;;;5028765;28;20042;-71
2022/12/12 05:55:40;;;;;;;30.70;13.18;;;-0.30;99.90;;;;;;5029032;28;20097;-72
2022/12/12 05:58:05;;;;;;;27.75;13.95;;;-0.30;99.90;;;;;;5007417;28;20089;-73
2022/12/12 06:00:31;;;;;;;28.45;14.25;;;-0.30;99.90;;;;;;5026920;28;20037;-73
2022/12/12 06:02:56;;;;;;;26.35;13.45;;;-0.30;99.90;;;;;;5028827;28;20053;-72
2022/12/12 06:05:22;;;;;;;28.90;14.05;;;-0.30;99.90;;;;;;5029196;28;20040;-71
2022/12/12 06:07:48;;;;;;;25.92;13.93;;;-0.30;99.90;;;;;;5006225;28;20050;-72
2022/12/12 06:10:13;;;;;;;24.73;12.63;;;-0.30;99.90;;;;;;5026240;28;20049;-72
2022/12/12 06:12:39;;;;;;;25.00;13.73;;;-0.30;99.90;;;;;;5012100;28;20057;-71
2022/12/12 06:15:07;;;;;;;25.77;13.02;;;-0.30;99.90;;;;;;5013014;28;20046;-71
2022/12/12 06:17:32;;;;;;;26.88;12.93;;;-0.30;99.90;;;;;;4994771;28;20045;-72
2022/12/12 06:19:58;;;;;;;27.80;13.05;;;-0.30;99.90;;;;;;5013117;28;20053;-72
2022/12/12 06:22:23;;;;;;;28.40;13.73;;;-0.30;99.90;;;;;;5014090;28;20509;-72
2022/12/12 06:24:49;;;;;;;26.10;13.82;;;-0.30;99.90;;;;;;4994687;28;20413;-73
2022/12/12 06:27:15;;;;;;;28.38;15.13;;;-0.30;99.90;;;;;;5013080;28;20448;-72
2022/12/12 06:29:40;;;;;;;30.88;15.10;;;-0.30;99.90;;;;;;5012972;28;20041;-73
2022/12/12 06:32:06;;;;;;;27.70;14.55;;;-0.30;99.90;;;;;;4996060;28;20124;-72
2022/12/12 06:34:32;;;;;;;29.52;15.10;;;-0.30;99.90;;;;;;5012510;28;20057;-71
2022/12/12 06:36:57;;;;;;;25.08;13.82;;;-0.30;99.90;;;;;;5012044;28;20050;-74
2022/12/12 06:39:23;;;;;;;25.40;13.80;;;-0.30;99.90;;;;;;5010563;28;20038;-72
2022/12/12 06:41:49;;;;;;;26.85;13.13;;;-0.30;99.90;;;;;;5012524;28;20034;-71
2022/12/12 06:44:15;;;;;;;27.85;14.13;;;-0.30;99.90;;;;;;5013566;28;20118;-74
2022/12/12 06:46:40;;;;;;;27.60;14.35;;;-0.30;99.90;;;;;;5012225;28;20458;-72
2022/12/12 06:49:08;;;;;;;29.60;14.75;;;-0.30;99.90;;;;;;5012146;28;20073;-72
2022/12/12 06:51:37;;;;;;;23.95;13.48;;;-0.30;99.90;;;;;;4994517;28;20061;-70
2022/12/12 06:54:03;;;;;;;29.85;14.20;;;-0.30;99.90;;;;;;5013034;28;20636;-71
2022/12/12 06:56:29;;;;;;;25.27;13.63;;;-0.30;99.90;;;;;;5011905;28;20417;-71
2022/12/12 06:58:58;;;;;;;23.95;13.13;;;0.40;99.90;;;;;;4994413;28;20196;-72
2022/12/12 07:01:23;;;;;;;26.75;14.10;;;-0.10;99.90;;;;;;5021236;28;20393;-72
2022/12/12 07:03:50;;;;;;;30.92;14.60;;;-0.30;99.90;;;;;;5030035;28;20052;-73
2022/12/12 07:06:18;;;;;;;26.30;13.82;;;-0.30;99.90;;;;;;5014147;28;20061;-71
2022/12/12 07:08:44;;;;;;;24.63;13.27;;;-0.30;99.90;;;;;;5013878;28;20053;-71
2022/12/12 07:11:12;;;;;;;28.27;14.07;;;-0.30;99.90;;;;;;5031904;28;20050;-72
2022/12/12 07:13:38;;;;;;;27.60;13.32;;;-0.30;99.90;;;;;;5013732;28;20041;-72
2022/12/12 07:16:04;;;;;;;23.13;13.13;;;-0.30;99.90;;;;;;5029616;28;20041;-69
2022/12/12 07:18:30;;;;;;;29.33;14.45;;;-0.30;99.90;;;;;;4992226;28;20054;-72
2022/12/12 07:20:55;;;;;;;24.92;14.07;;;-0.30;99.90;;;;;;4974993;28;20042;-72
2022/12/12 07:23:21;;;;;;;27.40;13.57;;;-0.30;99.90;;;;;;4990834;28;20050;-72
2022/12/12 07:25:47;;;;;;;24.95;13.23;;;-0.30;99.90;;;;;;5004502;28;20053;-71
2022/12/12 07:28:13;;;;;;;27.65;13.90;;;-0.30;99.90;;;;;;4994198;28;20379;-72
2022/12/12 07:30:41;;;;;;;25.92;13.38;;;-0.30;99.90;;;;;;5011726;28;20045;-72
2022/12/12 07:33:07;;;;;;;27.50;13.25;;;-0.30;99.90;;;;;;4994089;28;20414;-71
2022/12/12 07:35:33;;;;;;;28.90;14.68;;;-0.30;99.90;;;;;;4994827;28;20050;-71
2022/12/12 07:37:58;;;;;;;26.13;13.23;;;-0.30;99.90;;;;;;5011355;28;20129;-75
2022/12/12 07:40:24;;;;;;;25.75;12.77;;;-0.30;99.90;;;;;;4994902;28;20454;-76
2022/12/12 07:42:50;;;;;;;29.25;14.82;;;-0.30;99.90;;;;;;5011658;28;20054;-72
2022/12/12 07:45:15;;;;;;;27.58;14.07;;;-0.30;99.90;;;;;;4994033;28;20050;-72
2022/12/12 07:47:41;;;;;;;26.88;13.90;;;-0.30;99.90;;;;;;4994597;28;20041;-72
2022/12/12 07:50:07;;;;;;;29.77;15.18;;;-0.30;99.90;;;;;;5011223;28;20053;-72
2022/12/12 07:52:33;;;;;;;23.50;12.90;;;-0.30;99.90;;;;;;5022531;28;20494;-71
2022/12/12 07:54:58;;;;;;;25.40;12.75;;;-0.30;99.90;;;;;;5012793;28;20049;-72
2022/12/12 07:57:24;;;;;;;26.27;14.18;;;-0.30;99.90;;;;;;5029003;28;20061;-74
2022/12/12 07:59:50;;;;;;;27.20;14.20;;;0.40;99.90;;;;;;5030981;28;20409;-71
2022/12/12 08:02:15;;;;;;;36.42;13.95;;;-0.30;99.90;;;;;;4981384;28;20486;-71
2022/12/12 08:04:41;;;;;;;31.35;13.70;;;-0.30;99.90;;;;;;4973879;28;20050;-72
2022/12/12 08:07:06;;;;;;;27.85;14.63;;;-0.30;99.90;;;;;;4996948;28;20037;-72
2022/12/12 08:09:32;;;;;;;27.52;13.50;;;-0.30;99.90;;;;;;5029945;28;20778;-71
2022/12/12 08:11:58;;;;;;;26.33;14.27;;;-0.30;99.90;;;;;;5012829;28;20049;-72
2022/12/12 08:14:25;;;;;;;24.45;13.00;;;-0.30;99.90;;;;;;5030662;28;20033;-71
2022/12/12 08:16:51;;;;;;;25.25;13.20;;;-0.30;99.90;;;;;;5012446;28;20057;-72
2022/12/12 08:19:17;;;;;;;26.90;13.30;;;-0.40;99.90;;;;;;5010726;28;20053;-71
2022/12/12 08:21:43;;;;;;;29.52;14.05;;;-0.30;99.90;;;;;;5029870;28;20401;-72
2022/12/12 08:24:11;;;;;;;28.50;13.85;;;-0.40;99.90;;;;;;4992982;28;20064;-72
2022/12/12 08:26:37;;;;;;;28.60;14.35;;;-0.30;99.90;;;;;;4973315;28;20074;-71
2022/12/12 08:29:03;;;;;;;26.95;14.18;;;-0.30;99.90;;;;;;4993068;28;20136;-71
2022/12/12 08:31:28;;;;;;;27.85;13.80;;;-0.30;99.90;;;;;;4992885;28;20053;-72
2022/12/12 08:33:55;;;;;;;26.38;14.13;;;-0.30;99.90;;;;;;5013769;28;20049;-73
2022/12/12 08:36:23;;;;;;;25.08;13.93;;;-0.30;99.90;;;;;;4993505;28;20046;-72
2022/12/12 08:38:49;;;;;;;29.15;13.98;;;-0.30;99.90;;;;;;4973383;28;20769;-73
2022/12/12 08:41:15;;;;;;;26.40;13.95;;;-0.30;99.90;;;;;;4990733;28;20050;-72
2022/12/12 08:43:42;;;;;;;25.50;13.10;;;-0.30;99.90;;;;;;4973816;28;20081;-72
2022/12/12 08:46:09;;;;;;;29.08;14.18;;;-0.30;99.90;;;;;;4991257;28;20081;-71
2022/12/12 08:48:34;;;;;;;30.88;14.13;;;-0.30;99.90;;;;;;5004021;28;20106;-72
2022/12/12 08:51:00;;;;;;;27.40;14.30;;;-0.20;99.90;;;;;;5030432;28;20045;-73
2022/12/12 08:53:26;;;;;;;28.23;13.80;;;-0.20;99.90;;;;;;5030398;28;20246;-72
2022/12/12 08:55:53;;;;;;;26.30;14.10;;;-0.20;99.90;;;;;;5029708;28;20501;-72
2022/12/12 08:58:18;;;;;;;25.27;12.60;;;-0.20;99.90;;;;;;5012585;28;20084;-72
2022/12/12 09:00:44;;;;;;;25.83;13.48;;;-0.20;99.90;;;;;;4994551;28;20579;-72
2022/12/12 09:03:10;;;;;;;28.40;14.40;;;-0.20;99.90;;;;;;5003659;28;20053;-72
2022/12/12 09:05:35;;;;;;;22.70;12.93;;;-0.20;99.90;;;;;;5021831;28;20041;-72
2022/12/12 09:08:01;;;;;;;25.65;13.45;;;-0.10;99.90;;;;;;5010968;28;20046;-71
2022/12/12 09:10:27;;;;;;;27.33;14.00;;;-0.10;99.90;;;;;;5013650;28;20471;-72
2022/12/12 09:12:54;;;;;;;27.77;14.05;;;-0.10;99.90;;;;;;4992622;28;20042;-72
2022/12/12 09:15:20;;;;;;;24.58;13.20;;;-0.10;99.90;;;;;;4996069;28;20049;-72
2022/12/12 09:17:45;;;;;;;24.77;12.90;;;-0.10;99.90;;;;;;4992669;28;20045;-75
2022/12/12 09:20:12;;;;;;;27.88;14.82;;;-0.10;99.90;;;;;;5014200;28;20454;-72
2022/12/12 09:22:37;;;;;;;28.30;14.60;;;-0.10;99.90;;;;;;4998722;28;20038;-72
2022/12/12 09:25:05;;;;;;;29.05;14.95;;;0.00;99.90;;;;;;4990795;28;20049;-73
2022/12/12 09:27:31;;;;;;;28.55;13.65;;;0.00;99.90;;;;;;5020279;28;20472;-72
2022/12/12 09:29:57;;;;;;;30.00;15.18;;;0.00;99.90;;;;;;5012431;28;20132;-72
2022/12/12 09:32:22;;;;;;;26.75;14.88;;;0.00;99.90;;;;;;5011954;28;20034;-72
2022/12/12 09:34:48;;;;;;;31.05;15.32;;;0.10;99.90;;;;;;5029174;28;20099;-73
2022/12/12 09:37:14;;;;;;;25.65;14.02;;;0.10;99.90;;;;;;5027076;28;20073;-72
2022/12/12 09:39:39;;;;;;;26.45;14.80;;;0.10;99.90;;;;;;5011695;28;20053;-74
2022/12/12 09:42:10;;;;;;;27.02;15.05;;;0.20;99.90;;;;;;5028811;28;20084;-72
2022/12/12 09:44:37;;;;;;;27.48;15.38;;;0.20;99.90;;;;;;5029319;28;20057;-71
2022/12/12 09:47:10;;;;;;;28.08;13.80;;;0.30;99.90;;;;;;5028849;28;20433;-72
2022/12/12 09:49:45;;;;;;;25.10;14.27;;;0.30;99.90;;;;;;5033166;28;20077;-72
2022/12/12 09:52:17;;;;;;;28.92;14.80;;;0.30;99.90;;;;;;5033045;28;20087;-71
2022/12/12 09:54:43;;;;;;;23.52;13.27;;;0.30;99.90;;;;;;5032980;28;20085;-71
2022/12/12 09:57:11;;;;;;;26.42;14.07;;;0.40;99.90;;;;;;5030876;28;20062;-73
2022/12/12 09:59:55;;;;;;;28.58;14.23;;;0.50;99.90;;;;;;5032559;28;20381;-71
2022/12/12 10:02:31;;;;;;;23.45;13.35;;;0.60;99.90;;;;;;5032621;28;20049;-72
2022/12/12 10:05:00;;;;;;;24.60;13.50;;;0.60;99.90;;;;;;5015332;28;20089;-71
2022/12/12 10:07:29;;;;;;;25.10;14.27;;;0.60;99.90;;;;;;5030835;28;20449;-71
2022/12/12 10:10:31;;;;;;;24.33;14.38;;;0.70;99.90;;;;;;5032966;28;20049;-72
2022/12/12 10:12:58;;;;;;;22.98;13.00;;;0.80;99.90;;;;;;4951875;29;20103;-72
2022/12/12 10:15:32;;;;;;;29.55;14.60;;;0.80;99.90;;;;;;4952113;29;20058;-73
2022/12/12 10:18:02;;;;;;;26.88;14.07;;;0.90;99.90;;;;;;4934150;29;20133;-75
2022/12/12 10:20:30;;;;;;;26.90;13.57;;;1.00;99.90;;;;;;4951159;29;20047;-73
2022/12/12 10:23:18;;;;;;;25.25;13.55;;;1.10;99.90;;;;;;4925182;28;20063;-72
2022/12/12 10:26:16;;;;;;;25.90;13.68;;;1.30;99.90;;;;;;4929409;29;20516;-72
2022/12/12 10:28:42;;;;;;;25.15;14.13;;;1.20;99.90;;;;;;4943977;29;20066;-70
2022/12/12 10:31:34;;;;;;;24.65;14.10;;;1.20;99.90;;;;;;4918201;29;20514;-70
2022/12/12 10:34:38;;;;;;;26.00;13.60;;;1.20;99.90;;;;;;4945503;29;20057;-74
2022/12/12 10:37:31;;;;;;;29.92;13.88;;;1.20;99.90;;;;;;4890430;29;20107;-75
2022/12/12 10:40:15;;;;;;;22.85;13.05;;;1.20;99.90;;;;;;4916277;29;20106;-71
2022/12/12 10:43:18;;;;;;;27.63;14.60;;;1.30;99.90;;;;;;4932173;29;20085;-72
2022/12/12 10:45:55;;;;;;;23.40;13.32;;;1.40;99.90;;;;;;4931061;29;20086;-72
2022/12/12 10:48:20;;;;;;;24.27;13.88;;;1.40;99.90;;;;;;4904875;29;20059;-72
2022/12/12 10:50:53;;;;;;;26.90;14.45;;;1.40;99.90;;;;;;4913290;29;20154;-71
2022/12/12 10:53:19;;;;;;;26.65;13.95;;;1.40;99.90;;;;;;4913335;29;20056;-72
2022/12/12 10:55:48;;;;;;;23.45;13.32;;;1.50;99.90;;;;;;4913212;29;20056;-72
2022/12/12 10:58:15;;;;;;;21.98;13.18;;;1.80;99.90;;;;;;4913495;29;20060;-72
2022/12/12 11:00:44;;;;;;;27.60;13.35;;;1.50;99.90;;;;;;4897912;29;20052;-74
2022/12/12 11:03:21;;;;;;;22.23;13.25;;;1.50;99.90;;;;;;4913506;29;20059;-72
2022/12/12 11:05:47;;;;;;;24.65;13.32;;;1.50;99.90;;;;;;4913307;29;20106;-71
2022/12/12 11:08:25;;;;;;;23.27;13.23;;;1.50;99.90;;;;;;4914099;29;20492;-72
2022/12/12 11:10:59;;;;;;;23.42;13.07;;;1.50;99.90;;;;;;4927949;29;20110;-71
2022/12/12 11:13:25;;;;;;;22.77;12.07;;;1.50;99.90;;;;;;4970924;28;20484;-74
2022/12/12 11:15:56;;;;;;;21.92;12.00;;;1.50;99.90;;;;;;5014110;28;20139;-72
2022/12/12 11:18:23;;;;;;;22.17;13.20;;;1.50;99.90;;;;;;5031528;28;20149;-71
2022/12/12 11:21:05;;;;;;;22.33;12.65;;;1.50;99.90;;;;;;5029204;28;20038;-73
2022/12/12 11:23:32;;;;;;;25.55;13.05;;;1.50;99.90;;;;;;5031335;28;20103;-73
2022/12/12 11:26:09;;;;;;;24.13;13.38;;;1.50;99.90;;;;;;5030971;28;20053;-72
2022/12/12 11:28:37;;;;;;;22.13;12.75;;;1.60;99.90;;;;;;5031014;28;20130;-74
2022/12/12 11:31:10;;;;;;;22.17;13.07;;;1.60;99.90;;;;;;5029516;28;20053;-73
2022/12/12 11:33:57;;;;;;;22.88;13.35;;;1.60;99.90;;;;;;5031022;28;20575;-72
2022/12/12 11:36:37;;;;;;;25.38;12.57;;;1.60;99.90;;;;;;4998754;28;20080;-73
2022/12/12 11:39:13;;;;;;;24.05;12.75;;;1.70;99.90;;;;;;5031233;28;20400;-75
2022/12/12 11:42:02;;;;;;;22.83;13.00;;;1.70;99.90;;;;;;5029599;28;20049;-75
2022/12/12 11:44:37;;;;;;;22.52;12.93;;;1.90;99.90;;;;;;5012928;28;20053;-72
2022/12/12 11:47:27;;;;;;;23.70;13.30;;;1.90;99.90;;;;;;5030882;28;20080;-72
2022/12/12 11:49:58;;;;;;;21.15;12.65;;;2.00;99.90;;;;;;5030722;28;20053;-72
2022/12/12 11:52:31;;;;;;;26.83;13.00;;;1.90;99.90;;;;;;5011332;28;20138;-73
2022/12/12 11:54:58;;;;;;;25.88;14.23;;;2.00;99.90;;;;;;5030536;28;20057;-73
2022/12/12 11:57:46;;;;;;;22.20;13.07;;;1.90;99.90;;;;;;5030305;28;20497;-72
2022/12/12 12:00:23;;;;;;;21.48;13.02;;;1.90;99.90;;;;;;5030630;28;20064;-73
2022/12/12 12:03:18;;;;;;;22.38;13.00;;;2.30;99.90;;;;;;5030658;28;20469;-72
2022/12/12 12:06:07;;;;;;;19.92;12.10;;;1.90;99.90;;;;;;5012927;28;20553;-72
2022/12/12 12:08:54;;;;;;;21.92;12.88;;;1.90;99.90;;;;;;5030487;28;20120;-74
2022/12/12 12:11:32;;;;;;;22.67;12.90;;;2.00;99.90;;;;;;5030203;28;20052;-72
2022/12/12 12:14:24;;;;;;;22.90;12.95;;;2.00;99.90;;;;;;5030741;28;20079;-73
2022/12/12 12:17:27;;;;;;;25.25;13.02;;;1.90;99.90;;;;;;5030282;28;20091;-71
2022/12/12 12:20:08;;;;;;;21.83;13.35;;;1.90;99.90;;;;;;5012638;28;20104;-72
2022/12/12 12:22:49;;;;;;;24.58;13.68;;;2.00;99.90;;;;;;5022857;28;20042;-73
2022/12/12 12:25:41;;;;;;;23.25;13.60;;;1.90;99.90;;;;;;4994368;28;20050;-73
2022/12/12 12:28:51;;;;;;;24.55;12.68;;;1.90;99.90;;;;;;4997507;28;20212;-73
2022/12/12 12:31:39;;;;;;;22.17;12.90;;;1.90;99.90;;;;;;4992695;28;20398;-72
2022/12/12 12:34:21;;;;;;;20.27;12.55;;;1.90;99.90;;;;;;5010528;28;20041;-72
2022/12/12 12:37:08;;;;;;;21.60;12.82;;;1.90;99.90;;;;;;4992536;28;20053;-72
2022/12/12 12:39:58;;;;;;;25.90;13.25;;;1.80;99.90;;;;;;4993729;28;20461;-73
2022/12/12 12:42:56;;;;;;;19.83;12.38;;;1.80;99.90;;;;;;5010206;28;20050;-72
2022/12/12 12:45:30;;;;;;;21.35;13.90;;;1.80;99.90;;;;;;5010348;28;20096;-74
2022/12/12 12:48:17;;;;;;;24.17;13.73;;;1.80;99.90;;;;;;5011296;28;20042;-73
2022/12/12 12:50:50;;;;;;;23.58;13.95;;;1.80;99.90;;;;;;5010549;28;20723;-73
2022/12/12 12:53:29;;;;;;;22.48;13.38;;;1.80;99.90;;;;;;5009961;28;20046;-73
2022/12/12 12:56:01;;;;;;;23.80;14.00;;;1.80;99.90;;;;;;5003021;28;20386;-73
2022/12/12 12:58:37;;;;;;;24.48;14.43;;;1.70;99.90;;;;;;5002668;28;20120;-72
2022/12/12 13:01:30;;;;;;;26.85;14.65;;;1.70;99.90;;;;;;5020575;28;20049;-73
2022/12/12 13:04:10;;;;;;;26.38;13.82;;;1.70;99.90;;;;;;4998374;28;20060;-73
2022/12/12 13:06:46;;;;;;;24.75;14.40;;;1.70;99.90;;;;;;4992198;28;20053;-72
2022/12/12 13:09:24;;;;;;;24.40;14.00;;;1.70;99.90;;;;;;4992031;28;20048;-72